ADDS METAR Data INFO
IDs: Format: Raw Decoded Include TAF

Data at: 1949 UTC 18 Feb 2018

KWJF 181856Z 23019G27KT 10SM CLR 17/M01 A2993 RMK AO2 PK WND 24028/1840 SLP130 T01671006
KWJF 181756Z 23021G27KT 10SM CLR 16/00 A2993 RMK AO2 PK WND 24027/1756 SLP135 T01560000 10156 20089 58004
KWJF 181656Z 23022G26KT 10SM CLR 14/01 A2994 RMK AO2 PK WND 25027/1636 SLP138 T01390006
KWJF 181556Z 25016KT 10SM CLR 12/M01 A2995 RMK AO2 SLP140 T01171006
KWJF 181456Z 24016KT 10SM CLR 10/M01 A2995 RMK AO2 SLP141 T01001011 56004
KWJF 181356Z AUTO 27014KT 10SM CLR 09/M01 A2995 RMK AO2 SLP139 T00941011
KWJF 181256Z AUTO 25011KT 10SM CLR 09/M03 A2995 RMK AO2 SLP138 T00941028
KWJF 181156Z AUTO 25015KT 10SM CLR 11/M04 A2996 RMK AO2 SLP140 T01061039 10122 20094 58014
KWJF 181056Z AUTO 24014KT 10SM CLR 10/M04 A2998 RMK AO2 SLP145 T01001044
KWJF 180956Z AUTO 24013KT 10SM CLR 11/M04 A2999 RMK AO2 SLP152 T01111044
KWJF 180856Z AUTO 23011KT 10SM CLR 10/M03 A3000 RMK AO2 SLP158 T01001033 56009
KWJF 180756Z AUTO 24013KT 10SM CLR 11/M03 A3001 RMK AO2 SLP161 T01111033 402001050
KWJF 180656Z AUTO 22011KT 10SM CLR 11/M03 A3002 RMK AO2 SLP166 T01061033
KWJF 180556Z AUTO 25009KT 10SM CLR 09/M06 A3003 RMK AO2 SLP174 T00891056 10189 20089 56005
KWJF 180456Z 28011KT 10SM CLR 10/M04 A3003 RMK AO2 SLP176 T01001044
KWJF 180356Z 25009KT 10SM CLR 12/M04 A3004 RMK AO2 SLP181 T01171039
KWJF 180256Z 25007KT 10SM CLR 12/M06 A3005 RMK AO2 SLP188 T01171061 56006
KWJF 180156Z 24004KT 10SM CLR 16/M12 A3005 RMK AO2 SLP186 T01611122
KWJF 180056Z 00000KT 10SM CLR 19/M13 A3006 RMK AO2 SLP185 T01891133
KWJF 172356Z 11005KT 10SM CLR 19/M13 A3007 RMK AO2 SLP189 T01891133 10200 20100 56025
KWJF 172256Z VRB03KT 10SM CLR 19/M13 A3009 RMK AO2 SLP194 T01941128
KWJF 172156Z 00000KT 10SM CLR 18/M13 A3012 RMK AO2 SLP206 T01781133
KWJF 172056Z 11003KT 10SM CLR 17/M13 A3015 RMK AO2 SLP216 T01671128 58025
KWJF 171956Z VRB03KT 10SM CLR 15/M12 A3019 RMK AO2 SLP228 T01501117
KWJF 171856Z 00000KT 10SM CLR 13/M10 A3022 RMK AO2 SLP239 T01331100
KWJF 171756Z 02003KT 10SM CLR 10/M08 A3023 RMK AO2 SLP246 T01001078 10100 21050 51009
KWJF 171656Z 34003KT 10SM CLR 05/M09 A3023 RMK AO2 SLP249 T00501089
KWJF 171556Z 16003KT 10SM CLR 01/M09 A3021 RMK AO2 SLP247 T00061089
KWJF 171456Z 20003KT 10SM CLR M03/M11 A3020 RMK AO2 SLP241 T10281106 53007
KWJF 171356Z AUTO 00000KT 10SM CLR M04/M10 A3018 RMK AO2 SLP233 T10391100
KWJF 171256Z AUTO 00000KT 10SM CLR M03/M11 A3017 RMK AO2 SLP226 T10331111
KWJF 171156Z AUTO 00000KT 10SM CLR M03/M11 A3018 RMK AO2 SLP227 T10331111 10028 21033 58006
KWJF 171056Z AUTO 00000KT 10SM CLR M02/M11 A3019 RMK AO2 SLP230 T10221106
KWJF 170956Z AUTO 34004KT 10SM CLR M02/M11 A3020 RMK AO2 SLP233 T10221111
KWJF 170856Z AUTO 00000KT 10SM CLR 00/M10 A3020 RMK AO2 SLP232 T00001100 53003
KWJF 170756Z AUTO 27006KT 10SM CLR 03/M09 A3019 RMK AO2 SLP228 T00281089 401721050